createdAt,value
2018-05-07T00:02:18.387Z,99.90
2018-05-07T00:04:45.929Z,99.90
2018-05-07T00:07:13.500Z,99.90
2018-05-07T00:09:41.063Z,99.90
2018-05-07T00:12:08.597Z,99.90
2018-05-07T00:14:36.159Z,99.90
2018-05-07T00:17:03.683Z,99.90
2018-05-07T00:19:31.978Z,99.90
2018-05-07T00:21:59.516Z,99.90
2018-05-07T00:24:27.806Z,99.90
2018-05-07T00:26:56.112Z,99.90
2018-05-07T00:29:23.672Z,99.90
2018-05-07T00:31:51.193Z,99.90
2018-05-07T00:34:19.490Z,99.90
2018-05-07T00:36:47.986Z,99.90
2018-05-07T00:39:15.493Z,99.90
2018-05-07T00:41:43.005Z,99.90
2018-05-07T00:44:10.543Z,99.90
2018-05-07T00:46:38.102Z,99.90
2018-05-07T00:49:05.622Z,99.90
2018-05-07T00:51:33.158Z,99.90
2018-05-07T00:54:00.697Z,99.90
2018-05-07T00:56:28.255Z,99.90
2018-05-07T00:58:55.796Z,99.90
2018-05-07T01:01:23.323Z,99.90
2018-05-07T01:03:51.605Z,99.90
2018-05-07T01:06:19.927Z,99.90
2018-05-07T01:08:47.445Z,99.90
2018-05-07T01:11:15.742Z,99.90
2018-05-07T01:13:43.282Z,99.90
2018-05-07T01:16:11.555Z,99.90
2018-05-07T01:18:39.851Z,99.90
2018-05-07T01:21:07.406Z,99.90
2018-05-07T01:23:34.917Z,99.90
2018-05-07T01:26:02.445Z,99.90
2018-05-07T01:28:30.000Z,99.90
2018-05-07T01:30:57.524Z,99.90
2018-05-07T01:33:25.058Z,99.90
2018-05-07T01:35:52.603Z,99.90
2018-05-07T01:38:20.125Z,99.90
2018-05-07T01:40:47.643Z,99.90
2018-05-07T01:43:16.059Z,99.90
2018-05-07T01:45:43.569Z,99.90
2018-05-07T01:48:12.576Z,99.90
2018-05-07T01:50:41.193Z,99.90
2018-05-07T01:53:08.712Z,99.90
2018-05-07T01:55:36.994Z,99.90
2018-05-07T01:58:05.344Z,99.90
2018-05-07T02:00:32.869Z,99.90
2018-05-07T02:03:00.405Z,99.90
2018-05-07T02:05:27.954Z,99.90
2018-05-07T02:07:56.242Z,99.90
2018-05-07T02:10:23.754Z,99.90
2018-05-07T02:12:52.083Z,99.90
2018-05-07T02:15:19.616Z,99.90
2018-05-07T02:17:47.897Z,99.90
2018-05-07T02:20:16.293Z,99.90
2018-05-07T02:22:43.867Z,99.90
2018-05-07T02:25:11.381Z,99.90
2018-05-07T02:27:39.683Z,99.90
2018-05-07T02:30:07.262Z,99.90
2018-05-07T02:32:34.785Z,99.90
2018-05-07T02:35:03.088Z,99.90
2018-05-07T02:37:30.597Z,99.90
2018-05-07T02:39:58.894Z,99.90
2018-05-07T02:42:26.428Z,99.90
2018-05-07T02:44:53.947Z,99.90
2018-05-07T02:47:21.466Z,99.90
2018-05-07T02:49:49.067Z,99.90
2018-05-07T02:52:16.593Z,99.90
2018-05-07T02:54:44.108Z,99.90
2018-05-07T02:57:11.754Z,99.90
2018-05-07T02:59:39.307Z,99.90
2018-05-07T03:02:06.874Z,99.90
2018-05-07T03:04:34.506Z,99.90
2018-05-07T03:07:03.504Z,99.90
2018-05-07T03:09:31.024Z,99.90
2018-05-07T03:11:59.435Z,99.90
2018-05-07T03:14:27.148Z,99.90
2018-05-07T03:16:54.790Z,99.90
2018-05-07T03:19:23.934Z,99.90
2018-05-07T03:21:51.520Z,99.90
2018-05-07T03:24:19.085Z,99.90
2018-05-07T03:26:46.740Z,99.90
2018-05-07T03:29:14.268Z,99.90
2018-05-07T03:31:41.792Z,99.90
2018-05-07T03:34:09.340Z,99.90
2018-05-07T03:36:38.394Z,99.90
2018-05-07T03:39:05.966Z,99.90
2018-05-07T03:41:33.519Z,99.90
2018-05-07T03:44:01.292Z,99.90
2018-05-07T03:46:28.827Z,99.90
2018-05-07T03:48:56.372Z,99.90
2018-05-07T03:51:24.659Z,99.90
2018-05-07T03:53:52.238Z,99.90
2018-05-07T03:56:19.798Z,99.90
2018-05-07T03:58:47.304Z,99.90
2018-05-07T04:01:15.589Z,99.90
2018-05-07T04:03:43.913Z,99.90
2018-05-07T04:06:11.431Z,99.90
2018-05-07T04:08:39.738Z,99.90
2018-05-07T04:11:07.291Z,99.90
2018-05-07T04:13:34.823Z,99.90
2018-05-07T04:16:02.397Z,99.90
2018-05-07T04:18:41.740Z,99.90
2018-05-07T04:21:14.798Z,99.90
2018-05-07T04:23:55.178Z,99.90
2018-05-07T04:26:22.724Z,99.90
2018-05-07T04:28:50.240Z,99.90
2018-05-07T04:31:17.878Z,99.90
2018-05-07T04:33:45.492Z,99.90
2018-05-07T04:36:12.986Z,99.90
2018-05-07T04:38:40.563Z,99.90
2018-05-07T04:41:08.076Z,99.90
2018-05-07T04:43:35.667Z,99.90
2018-05-07T04:46:03.225Z,99.90
2018-05-07T04:48:30.777Z,99.90
2018-05-07T04:50:58.302Z,99.90
2018-05-07T04:53:26.626Z,99.90
2018-05-07T04:55:54.180Z,99.90
2018-05-07T04:58:21.709Z,99.90
2018-05-07T05:00:49.259Z,99.90
2018-05-07T05:03:17.546Z,99.90
2018-05-07T05:05:45.125Z,99.90
2018-05-07T05:08:12.677Z,99.90
2018-05-07T05:10:40.246Z,99.90
2018-05-07T05:13:07.780Z,99.90
2018-05-07T05:15:35.337Z,99.90
2018-05-07T05:18:02.909Z,99.90
2018-05-07T05:20:30.427Z,99.90
2018-05-07T05:22:58.755Z,99.90
2018-05-07T05:25:26.313Z,99.90
2018-05-07T05:27:53.841Z,99.90
2018-05-07T05:30:21.377Z,99.90
2018-05-07T05:32:49.716Z,99.90
2018-05-07T05:35:17.245Z,99.90
2018-05-07T05:37:44.787Z,99.90
2018-05-07T05:40:13.075Z,99.90
2018-05-07T05:42:40.670Z,99.90
2018-05-07T05:45:08.226Z,99.90
2018-05-07T05:47:35.744Z,99.90
2018-05-07T05:50:03.299Z,99.90
2018-05-07T05:52:30.857Z,99.90
2018-05-07T05:54:58.445Z,99.90
2018-05-07T05:57:26.421Z,99.90
2018-05-07T05:59:53.966Z,99.90
2018-05-07T06:02:21.492Z,99.90
2018-05-07T06:04:49.805Z,99.90
2018-05-07T06:07:17.366Z,99.90
2018-05-07T06:09:44.887Z,99.90
2018-05-07T06:12:13.187Z,99.90
2018-05-07T06:14:40.823Z,99.90
2018-05-07T06:17:08.321Z,99.90
2018-05-07T06:19:35.806Z,99.90
2018-05-07T06:22:03.477Z,99.90
2018-05-07T06:24:31.094Z,99.90
2018-05-07T06:26:58.619Z,99.90
2018-05-07T06:29:26.941Z,99.90
2018-05-07T06:31:54.504Z,99.90
2018-05-07T06:34:22.088Z,99.90
2018-05-07T06:36:49.611Z,99.90
2018-05-07T06:39:17.145Z,99.90
2018-05-07T06:41:44.728Z,99.90
2018-05-07T06:44:12.279Z,99.90
2018-05-07T06:46:39.819Z,99.90
2018-05-07T06:49:07.379Z,99.90
2018-05-07T06:51:34.954Z,99.90
2018-05-07T06:54:02.482Z,99.90
2018-05-07T06:56:30.774Z,99.90
2018-05-07T06:58:58.321Z,99.90
2018-05-07T07:01:26.618Z,99.90
2018-05-07T07:03:54.179Z,99.90
2018-05-07T07:06:21.738Z,99.90
2018-05-07T07:08:49.260Z,99.90
2018-05-07T07:11:17.567Z,99.90
2018-05-07T07:13:45.143Z,99.90
2018-05-07T07:16:12.676Z,99.90
2018-05-07T07:18:40.260Z,99.90
2018-05-07T07:21:08.032Z,99.90
2018-05-07T07:23:35.582Z,99.90
2018-05-07T07:26:03.135Z,99.90
2018-05-07T07:28:30.709Z,99.90
2018-05-07T07:30:58.244Z,99.90
2018-05-07T07:33:25.782Z,99.90
2018-05-07T07:35:54.196Z,99.90
2018-05-07T07:38:21.715Z,99.90
2018-05-07T07:40:50.033Z,99.90
2018-05-07T07:43:17.591Z,99.90
2018-05-07T07:45:45.130Z,99.90
2018-05-07T07:48:12.661Z,99.90
2018-05-07T07:50:41.011Z,99.90
2018-05-07T07:53:08.528Z,99.90
2018-05-07T07:55:36.056Z,99.90
2018-05-07T07:58:04.371Z,99.90
2018-05-07T08:00:31.901Z,99.90
2018-05-07T08:02:59.432Z,99.90
2018-05-07T08:05:27.747Z,99.90
2018-05-07T08:07:55.267Z,99.90
2018-05-07T08:10:23.560Z,99.90
2018-05-07T08:12:51.865Z,99.90
2018-05-07T08:15:19.425Z,99.90
2018-05-07T08:17:46.960Z,99.90
2018-05-07T08:20:14.521Z,99.90
2018-05-07T08:22:42.288Z,99.60
2018-05-07T08:25:09.793Z,99.90
2018-05-07T08:27:37.332Z,99.00
2018-05-07T08:30:04.882Z,98.90
2018-05-07T08:32:32.401Z,98.80
2018-05-07T08:35:00.730Z,98.40
2018-05-07T08:37:28.240Z,98.30
2018-05-07T08:39:56.524Z,96.80
2018-05-07T08:42:24.073Z,96.70
2018-05-07T08:44:51.669Z,96.40
2018-05-07T08:47:19.193Z,96.20
2018-05-07T08:49:47.600Z,94.30
2018-05-07T08:52:15.113Z,94.30
2018-05-07T08:54:42.634Z,94.60
2018-05-07T08:57:10.194Z,94.60
2018-05-07T08:59:37.721Z,93.60
2018-05-07T09:02:05.326Z,93.30
2018-05-07T09:04:32.859Z,92.80
2018-05-07T09:07:00.374Z,92.20
2018-05-07T09:09:28.656Z,92.10
2018-05-07T09:11:56.973Z,92.70
2018-05-07T09:14:24.504Z,92.70
2018-05-07T09:16:52.088Z,91.90
2018-05-07T09:19:19.636Z,91.10
2018-05-07T09:21:47.212Z,90.40
2018-05-07T09:24:14.727Z,90.70
2018-05-07T09:26:42.292Z,90.40
2018-05-07T09:29:09.823Z,88.30
2018-05-07T09:31:37.507Z,87.90
2018-05-07T09:34:04.993Z,85.60
2018-05-07T09:36:32.560Z,85.30
2018-05-07T09:39:00.086Z,86.90
2018-05-07T09:41:27.672Z,87.20
2018-05-07T09:43:55.199Z,85.70
2018-05-07T09:46:22.724Z,83.90
2018-05-07T09:48:50.377Z,85.50
2018-05-07T09:51:17.936Z,83.60
2018-05-07T09:53:45.479Z,83.60
2018-05-07T09:56:13.022Z,84.80
2018-05-07T10:01:35.152Z,78.50
2018-05-07T10:04:02.764Z,79.90
2018-05-07T10:06:30.284Z,77.50
2018-05-07T10:08:57.829Z,76.90
2018-05-07T10:11:25.411Z,75.10
2018-05-07T10:13:52.936Z,76.90
2018-05-07T10:16:20.507Z,76.80
2018-05-07T10:18:48.074Z,76.70
2018-05-07T10:21:15.603Z,76.90
2018-05-07T10:23:43.905Z,69.60
2018-05-07T10:26:11.423Z,69.50
2018-05-07T10:28:38.938Z,70.10
2018-05-07T10:31:06.507Z,71.50
2018-05-07T10:33:34.038Z,70.60
2018-05-07T10:36:01.571Z,71.50
2018-05-07T10:38:29.878Z,73.30
2018-05-07T10:40:57.396Z,73.00
2018-05-07T10:43:26.068Z,70.30
2018-05-07T10:45:53.597Z,69.40
2018-05-07T10:48:21.109Z,68.60
2018-05-07T10:50:49.422Z,68.30
2018-05-07T10:53:17.073Z,68.20
2018-05-07T10:55:44.606Z,68.90
2018-05-07T10:58:12.172Z,68.30
2018-05-07T11:00:39.752Z,65.50
2018-05-07T11:03:07.313Z,64.70
2018-05-07T11:05:34.840Z,64.70
2018-05-07T11:08:02.487Z,65.00
2018-05-07T11:10:30.851Z,64.80
2018-05-07T11:12:59.874Z,65.40
2018-05-07T11:15:27.412Z,65.40
2018-05-07T11:17:55.751Z,65.70
2018-05-07T11:20:23.293Z,65.70
2018-05-07T11:22:50.830Z,64.10
2018-05-07T11:25:18.348Z,64.90
2018-05-07T11:27:45.898Z,64.30
2018-05-07T11:30:13.432Z,67.40
2018-05-07T11:32:40.963Z,67.40
2018-05-07T11:35:08.541Z,64.90
2018-05-07T11:37:36.081Z,66.60
2018-05-07T11:40:03.648Z,65.40
2018-05-07T11:42:31.168Z,66.10
2018-05-07T11:44:58.875Z,64.20
2018-05-07T11:47:26.415Z,65.60
2018-05-07T11:49:53.946Z,67.30
2018-05-07T11:52:22.303Z,64.10
2018-05-07T11:54:49.838Z,64.10
2018-05-07T11:57:17.360Z,64.10
2018-05-07T11:59:45.666Z,63.80
2018-05-07T12:02:13.214Z,63.80
2018-05-07T12:04:40.775Z,63.30
2018-05-07T12:07:08.748Z,63.90
2018-05-07T12:09:36.409Z,62.20
2018-05-07T12:12:03.957Z,62.60
2018-05-07T12:14:31.533Z,63.20
2018-05-07T12:16:59.079Z,62.20
2018-05-07T12:19:26.607Z,61.70
2018-05-07T12:21:54.909Z,61.00
2018-05-07T12:24:22.463Z,60.90
2018-05-07T12:26:49.990Z,59.30
2018-05-07T12:29:18.290Z,56.90
2018-05-07T12:31:46.012Z,56.80
2018-05-07T12:34:13.419Z,54.00
2018-05-07T12:36:40.995Z,52.10
2018-05-07T12:39:08.529Z,51.10
2018-05-07T12:41:36.121Z,51.90
2018-05-07T12:44:03.739Z,49.70
2018-05-07T12:46:32.125Z,47.10
2018-05-07T12:48:59.643Z,46.90
2018-05-07T12:51:27.201Z,48.30
2018-05-07T12:53:56.356Z,46.20
2018-05-07T12:56:23.949Z,46.10
2018-05-07T12:58:51.474Z,45.10
2018-05-07T13:01:19.035Z,44.00
2018-05-07T13:03:46.567Z,43.20
2018-05-07T13:06:14.089Z,44.00
2018-05-07T13:08:41.713Z,43.80
2018-05-07T13:11:09.279Z,44.10
2018-05-07T13:13:36.826Z,43.20
2018-05-07T13:16:04.377Z,41.90
2018-05-07T13:18:31.950Z,42.60
2018-05-07T13:20:59.507Z,41.10
2018-05-07T13:23:27.053Z,41.60
2018-05-07T13:25:54.576Z,42.10
2018-05-07T13:28:22.912Z,41.20
2018-05-07T13:30:50.468Z,41.10
2018-05-07T13:33:17.996Z,41.20
2018-05-07T13:35:45.588Z,41.00
2018-05-07T13:38:13.135Z,41.20
2018-05-07T13:40:40.684Z,41.50
2018-05-07T13:43:08.264Z,40.80
2018-05-07T13:45:35.812Z,40.20
2018-05-07T13:48:03.381Z,39.40
2018-05-07T13:50:30.926Z,39.70
2018-05-07T13:52:58.502Z,40.50
2018-05-07T13:55:26.061Z,41.00
2018-05-07T13:57:53.703Z,39.70
2018-05-07T14:00:21.273Z,39.30
2018-05-07T14:02:48.822Z,38.70
2018-05-07T14:05:16.343Z,38.50
2018-05-07T14:07:44.665Z,39.00
2018-05-07T14:10:12.185Z,39.00
2018-05-07T14:12:40.487Z,38.90
2018-05-07T14:15:08.064Z,38.80
2018-05-07T14:17:35.600Z,39.00
2018-05-07T14:20:03.149Z,39.00
2018-05-07T14:22:30.729Z,39.70
2018-05-07T14:24:58.292Z,38.80
2018-05-07T14:27:25.809Z,38.20
2018-05-07T14:29:54.125Z,38.50
2018-05-07T14:32:21.683Z,38.40
2018-05-07T14:34:49.241Z,38.10
2018-05-07T14:37:16.815Z,38.30
2018-05-07T14:39:44.365Z,38.30
2018-05-07T14:42:11.876Z,37.60
2018-05-07T14:44:40.172Z,38.30
2018-05-07T14:47:07.745Z,38.90
2018-05-07T14:49:35.263Z,38.40
2018-05-07T14:52:03.554Z,37.90
2018-05-07T14:54:31.241Z,37.90
2018-05-07T14:56:58.808Z,37.30
2018-05-07T14:59:26.945Z,36.80
2018-05-07T15:01:55.264Z,37.30
2018-05-07T15:04:22.801Z,37.30
2018-05-07T15:06:50.347Z,37.30
2018-05-07T15:09:17.926Z,37.50
2018-05-07T15:11:45.495Z,37.70
2018-05-07T15:14:23.705Z,37.40
2018-05-07T15:16:51.255Z,37.20
2018-05-07T15:19:18.818Z,36.30
2018-05-07T15:21:46.361Z,36.70
2018-05-07T15:24:13.921Z,37.00
2018-05-07T15:26:41.786Z,36.60
2018-05-07T15:29:09.390Z,36.40
2018-05-07T15:31:36.912Z,35.30
2018-05-07T15:34:04.469Z,36.90
2018-05-07T15:36:31.993Z,36.40
2018-05-07T15:39:00.295Z,36.50
2018-05-07T15:41:27.846Z,36.50
2018-05-07T15:43:55.483Z,35.10
2018-05-07T15:46:22.971Z,36.30
2018-05-07T15:48:50.507Z,36.00
2018-05-07T15:51:18.797Z,35.70
2018-05-07T15:53:46.460Z,35.70
2018-05-07T15:56:13.951Z,35.30
2018-05-07T15:58:41.505Z,35.40
2018-05-07T16:01:09.054Z,35.00
2018-05-07T16:03:36.617Z,35.30
2018-05-07T16:06:04.151Z,35.80
2018-05-07T16:08:31.734Z,35.70
2018-05-07T16:10:59.258Z,35.60
2018-05-07T16:13:26.844Z,35.90
2018-05-07T16:15:54.386Z,35.50
2018-05-07T16:18:21.924Z,35.20
2018-05-07T16:20:50.283Z,35.30
2018-05-07T16:23:18.091Z,35.30
2018-05-07T16:25:47.070Z,35.70
2018-05-07T16:28:14.616Z,35.60
2018-05-07T16:30:42.937Z,36.30
2018-05-07T16:33:10.500Z,36.30
2018-05-07T16:35:38.133Z,36.10
2018-05-07T16:38:05.613Z,36.20
2018-05-07T16:40:33.126Z,36.10
2018-05-07T16:43:01.413Z,36.30
2018-05-07T16:45:28.971Z,36.20
2018-05-07T16:47:57.268Z,36.30
2018-05-07T16:50:24.805Z,36.30
2018-05-07T16:52:53.128Z,36.60
2018-05-07T16:55:20.683Z,36.60
2018-05-07T16:57:48.209Z,36.70
2018-05-07T17:00:15.779Z,37.20
2018-05-07T17:02:43.442Z,37.10
2018-05-07T17:05:13.009Z,37.40
2018-05-07T17:07:41.447Z,37.10
2018-05-07T17:10:09.178Z,37.00
2018-05-07T17:12:36.713Z,37.20
2018-05-07T17:15:05.575Z,38.00
2018-05-07T17:17:33.106Z,37.90
2018-05-07T17:20:00.640Z,38.10
2018-05-07T17:22:28.238Z,38.00
2018-05-07T17:24:55.845Z,38.80
2018-05-07T17:27:24.126Z,39.50
2018-05-07T17:29:52.641Z,39.60
2018-05-07T17:32:20.160Z,39.50
2018-05-07T17:34:48.465Z,40.10
2018-05-07T17:37:16.023Z,40.10
2018-05-07T17:39:43.563Z,40.20
2018-05-07T17:42:11.076Z,40.50
2018-05-07T17:44:50.474Z,40.80
2018-05-07T17:47:29.919Z,41.10
2018-05-07T17:49:57.677Z,41.80
2018-05-07T17:52:25.207Z,42.10
2018-05-07T17:54:53.516Z,42.50
2018-05-07T17:57:21.265Z,42.40
2018-05-07T17:59:48.746Z,42.80
2018-05-07T18:02:16.303Z,42.80
2018-05-07T18:04:43.864Z,43.10
2018-05-07T18:07:11.421Z,43.10
2018-05-07T18:09:38.929Z,43.30
2018-05-07T18:12:07.245Z,43.80
2018-05-07T18:14:34.821Z,43.70
2018-05-07T18:17:02.491Z,44.20
2018-05-07T18:19:30.366Z,45.20
2018-05-07T18:21:58.016Z,46.70
2018-05-07T18:24:25.534Z,48.50
2018-05-07T18:26:53.108Z,50.60
2018-05-07T18:29:20.635Z,50.70
2018-05-07T18:31:48.924Z,52.40
2018-05-07T18:34:16.605Z,52.40
2018-05-07T18:36:44.135Z,52.90
2018-05-07T18:39:12.417Z,54.00
2018-05-07T18:41:39.999Z,53.90
2018-05-07T18:44:07.527Z,54.40
2018-05-07T18:46:35.810Z,55.20
2018-05-07T18:49:03.409Z,55.10
2018-05-07T18:51:30.970Z,55.60
2018-05-07T18:53:58.511Z,56.00
2018-05-07T18:56:26.050Z,56.40
2018-05-07T18:58:53.602Z,57.20
2018-05-07T19:01:21.218Z,57.80
2018-05-07T19:03:48.850Z,57.80
2018-05-07T19:06:16.363Z,58.00
2018-05-07T19:08:44.674Z,58.00
2018-05-07T19:11:12.238Z,57.80
2018-05-07T19:13:39.759Z,58.20
2018-05-07T19:16:08.100Z,58.40
2018-05-07T19:18:35.658Z,58.30
2018-05-07T19:21:03.224Z,58.70
2018-05-07T19:23:31.054Z,59.10
2018-05-07T19:25:58.603Z,59.10
2018-05-07T19:28:26.106Z,59.50
2018-05-07T19:30:53.818Z,59.80
2018-05-07T19:33:21.391Z,60.20
2018-05-07T19:35:48.927Z,60.60
2018-05-07T19:38:16.458Z,60.80
2018-05-07T19:40:44.882Z,61.10
2018-05-07T19:43:12.408Z,61.60
2018-05-07T19:45:40.728Z,62.10
2018-05-07T19:48:08.352Z,62.00
2018-05-07T19:50:35.847Z,62.20
2018-05-07T19:53:03.385Z,62.90
2018-05-07T19:55:30.968Z,63.10
2018-05-07T19:57:58.526Z,63.10
2018-05-07T20:00:26.064Z,63.30
2018-05-07T20:02:53.622Z,63.10
2018-05-07T20:05:21.137Z,63.00
2018-05-07T20:07:48.769Z,63.20
2018-05-07T20:10:16.618Z,63.40
2018-05-07T20:12:44.148Z,63.40
2018-05-07T20:15:12.477Z,63.50
2018-05-07T20:17:40.035Z,63.50
2018-05-07T20:20:07.580Z,63.90
2018-05-07T20:22:35.121Z,64.20
2018-05-07T20:25:02.696Z,64.50
2018-05-07T20:27:30.240Z,64.50
2018-05-07T20:29:57.791Z,64.70
2018-05-07T20:32:25.301Z,64.80
2018-05-07T20:34:52.857Z,64.80
2018-05-07T20:37:20.396Z,65.10
2018-05-07T20:39:47.915Z,64.60
2018-05-07T20:42:16.374Z,65.10
2018-05-07T20:44:44.670Z,65.00
2018-05-07T20:47:12.212Z,64.80
2018-05-07T20:49:40.520Z,64.90
2018-05-07T20:52:08.093Z,64.80
2018-05-07T20:54:35.882Z,65.40
2018-05-07T20:57:03.415Z,65.20
2018-05-07T20:59:30.943Z,65.30
2018-05-07T21:01:58.487Z,65.80
2018-05-07T21:04:28.205Z,66.00
2018-05-07T21:06:55.865Z,65.90
2018-05-07T21:09:24.150Z,66.20
2018-05-07T21:11:51.671Z,66.10
2018-05-07T21:14:19.209Z,66.30
2018-05-07T21:16:46.713Z,66.50
2018-05-07T21:19:15.040Z,66.90
2018-05-07T21:21:42.567Z,66.80
2018-05-07T21:24:10.092Z,67.10
2018-05-07T21:26:38.397Z,67.90
2018-05-07T21:29:05.910Z,67.80
2018-05-07T21:31:34.244Z,68.70
2018-05-07T21:34:01.882Z,68.70
2018-05-07T21:36:30.152Z,69.70
2018-05-07T21:38:58.570Z,70.10
2018-05-07T21:41:27.142Z,70.00
2018-05-07T21:43:55.509Z,70.40
2018-05-07T21:46:23.017Z,70.30
2018-05-07T21:48:50.537Z,70.90
2018-05-07T21:51:18.069Z,71.50
2018-05-07T21:53:46.362Z,73.40
2018-05-07T21:56:13.917Z,73.20
2018-05-07T21:58:41.432Z,74.40
2018-05-07T22:01:08.946Z,75.00
2018-05-07T22:03:36.491Z,75.60
2018-05-07T22:06:04.066Z,77.40
2018-05-07T22:08:31.612Z,77.20
2018-05-07T22:10:59.135Z,78.10
2018-05-07T22:13:27.770Z,81.40
2018-05-07T22:15:55.316Z,81.30
2018-05-07T22:18:22.859Z,83.40
2018-05-07T22:20:50.378Z,85.30
2018-05-07T22:23:17.906Z,86.30
2018-05-07T22:25:45.409Z,88.10
2018-05-07T22:28:12.919Z,89.90
2018-05-07T22:30:40.469Z,91.40
2018-05-07T22:33:07.994Z,92.30
2018-05-07T22:35:36.264Z,93.30
2018-05-07T22:38:04.587Z,93.80
2018-05-07T22:40:32.112Z,93.80
2018-05-07T22:42:59.664Z,94.00
2018-05-07T22:45:27.987Z,94.50
2018-05-07T22:47:55.509Z,94.50
2018-05-07T22:50:23.072Z,95.20
2018-05-07T22:52:50.625Z,95.40
2018-05-07T22:55:20.668Z,95.60
2018-05-07T22:57:48.176Z,96.10
2018-05-07T23:00:15.724Z,96.30
2018-05-07T23:02:43.246Z,97.00
2018-05-07T23:05:10.761Z,96.60
2018-05-07T23:07:39.094Z,97.20
2018-05-07T23:10:06.632Z,97.10
2018-05-07T23:12:34.145Z,97.40
2018-05-07T23:15:02.485Z,99.00
2018-05-07T23:17:30.020Z,98.90
2018-05-07T23:19:57.546Z,99.80
2018-05-07T23:22:25.983Z,99.90
2018-05-07T23:24:53.533Z,99.90
2018-05-07T23:27:21.044Z,99.90
2018-05-07T23:29:49.877Z,99.90
2018-05-07T23:32:17.391Z,99.90
2018-05-07T23:34:45.665Z,99.90
2018-05-07T23:37:13.984Z,99.90
2018-05-07T23:39:41.496Z,99.90
2018-05-07T23:42:09.783Z,99.90
2018-05-07T23:44:38.189Z,99.90
2018-05-07T23:47:05.699Z,99.90
2018-05-07T23:49:33.211Z,99.90
2018-05-07T23:52:00.877Z,99.90
2018-05-07T23:54:28.399Z,99.90
2018-05-07T23:56:56.009Z,99.90
2018-05-07T23:59:23.559Z,99.90
